sensor_id;sensor_type;location;lat;lon;timestamp;pressure;altitude;pressure_sealevel;temperature;humidity
62791;BME280;48830;53.426;10.300;2023-05-10T00:00:21;100817.22;;;14.33;66.02
62791;BME280;48830;53.426;10.300;2023-05-10T00:02:49;100813.75;;;14.30;66.68
62791;BME280;48830;53.426;10.300;2023-05-10T00:05:14;100818.91;;;14.31;66.26
62791;BME280;48830;53.426;10.300;2023-05-10T00:07:40;100815.47;;;14.31;66.49
62791;BME280;48830;53.426;10.300;2023-05-10T00:10:05;100815.47;;;14.20;66.87
62791;BME280;48830;53.426;10.300;2023-05-10T00:12:31;100805.13;;;14.29;66.29
62791;BME280;48830;53.426;10.300;2023-05-10T00:14:56;100803.41;;;14.19;67.02
62791;BME280;48830;53.426;10.300;2023-05-10T00:17:22;100793.06;;;14.19;66.96
62791;BME280;48830;53.426;10.300;2023-05-10T00:19:47;100793.09;;;14.22;67.65
62791;BME280;48830;53.426;10.300;2023-05-10T00:22:13;100788.78;;;14.16;67.32
62791;BME280;48830;53.426;10.300;2023-05-10T00:24:38;100792.19;;;14.09;68.39
62791;BME280;48830;53.426;10.300;2023-05-10T00:27:04;100780.13;;;14.08;67.70
62791;BME280;48830;53.426;10.300;2023-05-10T00:29:30;100783.59;;;14.06;67.89
62791;BME280;48830;53.426;10.300;2023-05-10T00:31:55;100775.81;;;14.09;67.69
62791;BME280;48830;53.426;10.300;2023-05-10T00:34:21;100779.28;;;14.08;67.64
62791;BME280;48830;53.426;10.300;2023-05-10T00:36:47;100785.31;;;14.05;68.12
62791;BME280;48830;53.426;10.300;2023-05-10T00:39:12;100774.97;;;13.96;68.09
62791;BME280;48830;53.426;10.300;2023-05-10T00:41:38;100774.09;;;14.02;67.77
62791;BME280;48830;53.426;10.300;2023-05-10T00:44:05;100774.09;;;13.99;67.75
62791;BME280;48830;53.426;10.300;2023-05-10T00:46:30;100773.22;;;13.90;68.25
62791;BME280;48830;53.426;10.300;2023-05-10T00:48:57;100769.78;;;13.93;68.26
62791;BME280;48830;53.426;10.300;2023-05-10T00:51:23;100768.94;;;13.89;68.26
62791;BME280;48830;53.426;10.300;2023-05-10T00:53:49;100775.78;;;13.81;68.55
62791;BME280;48830;53.426;10.300;2023-05-10T00:56:16;100766.31;;;13.86;68.33
62791;BME280;48830;53.426;10.300;2023-05-10T00:58:41;100760.31;;;13.84;68.23
62791;BME280;48830;53.426;10.300;2023-05-10T01:01:07;100760.31;;;13.84;68.67
62791;BME280;48830;53.426;10.300;2023-05-10T01:03:33;100757.69;;;13.75;68.97
62791;BME280;48830;53.426;10.300;2023-05-10T01:05:58;100756.00;;;13.79;69.42
62791;BME280;48830;53.426;10.300;2023-05-10T01:08:25;100749.94;;;13.81;68.99
62791;BME280;48830;53.426;10.300;2023-05-10T01:10:51;100756.84;;;13.76;69.06
62791;BME280;48830;53.426;10.300;2023-05-10T01:13:53;100749.09;;;13.73;69.32
62791;BME280;48830;53.426;10.300;2023-05-10T01:16:20;100751.66;;;13.70;69.73
62791;BME280;48830;53.426;10.300;2023-05-10T01:18:48;100748.19;;;13.66;69.64
62791;BME280;48830;53.426;10.300;2023-05-10T01:21:31;100742.16;;;13.60;69.91
62791;BME280;48830;53.426;10.300;2023-05-10T01:30:07;100757.66;;;13.55;70.06
62791;BME280;48830;53.426;10.300;2023-05-10T01:32:54;100763.69;;;13.53;70.36
62791;BME280;48830;53.426;10.300;2023-05-10T01:38:09;100766.22;;;13.42;71.73
62791;BME280;48830;53.426;10.300;2023-05-10T01:40:51;100773.13;;;13.46;71.53
62791;BME280;48830;53.426;10.300;2023-05-10T01:43:28;100767.13;;;13.46;71.18
62791;BME280;48830;53.426;10.300;2023-05-10T01:46:03;100761.03;;;13.30;72.15
62791;BME280;48830;53.426;10.300;2023-05-10T01:48:40;100759.31;;;13.30;72.03
62791;BME280;48830;53.426;10.300;2023-05-10T01:51:12;100761.03;;;13.31;71.93
62791;BME280;48830;53.426;10.300;2023-05-10T01:53:39;100761.00;;;13.25;72.79
62791;BME280;48830;53.426;10.300;2023-05-10T01:56:07;100761.00;;;13.24;73.39
62791;BME280;48830;53.426;10.300;2023-05-10T01:58:34;100761.75;;;13.06;73.71
62791;BME280;48830;53.426;10.300;2023-05-10T02:01:03;100763.50;;;13.13;73.78
62791;BME280;48830;53.426;10.300;2023-05-10T02:03:31;100764.38;;;13.13;73.55
62791;BME280;48830;53.426;10.300;2023-05-10T02:05:57;100748.88;;;13.15;73.54
62791;BME280;48830;53.426;10.300;2023-05-10T02:08:23;100758.28;;;13.07;73.75
62791;BME280;48830;53.426;10.300;2023-05-10T02:10:51;100758.31;;;13.10;74.23
62791;BME280;48830;53.426;10.300;2023-05-10T02:13:18;100765.13;;;12.96;74.60
62791;BME280;48830;53.426;10.300;2023-05-10T02:15:47;100758.31;;;13.02;74.27
62791;BME280;48830;53.426;10.300;2023-05-10T02:18:14;100762.53;;;12.94;74.58
62791;BME280;48830;53.426;10.300;2023-05-10T02:20:42;100756.53;;;12.94;74.52
62791;BME280;48830;53.426;10.300;2023-05-10T02:23:09;100756.47;;;12.84;74.81
62791;BME280;48830;53.426;10.300;2023-05-10T02:25:35;100753.03;;;12.85;75.50
62791;BME280;48830;53.426;10.300;2023-05-10T02:28:04;100754.72;;;12.80;75.71
62791;BME280;48830;53.426;10.300;2023-05-10T02:30:31;100759.88;;;12.80;76.18
62791;BME280;48830;53.426;10.300;2023-05-10T02:32:57;100746.13;;;12.75;76.57
62791;BME280;48830;53.426;10.300;2023-05-10T02:35:25;100749.53;;;12.73;76.36
62791;BME280;48830;53.426;10.300;2023-05-10T02:37:52;100754.66;;;12.70;76.98
62791;BME280;48830;53.426;10.300;2023-05-10T02:40:19;100746.91;;;12.70;76.61
62791;BME280;48830;53.426;10.300;2023-05-10T02:42:47;100752.03;;;12.64;77.59
62791;BME280;48830;53.426;10.300;2023-05-10T02:45:19;100743.47;;;12.69;77.12
62791;BME280;48830;53.426;10.300;2023-05-10T02:47:45;100743.47;;;12.69;76.99
62791;BME280;48830;53.426;10.300;2023-05-10T02:50:11;100740.03;;;12.67;76.82
62791;BME280;48830;53.426;10.300;2023-05-10T02:52:43;100738.31;;;12.68;76.31
62791;BME280;48830;53.426;10.300;2023-05-10T02:55:11;100745.13;;;12.58;77.08
62791;BME280;48830;53.426;10.300;2023-05-10T02:57:41;100736.56;;;12.60;77.11
62791;BME280;48830;53.426;10.300;2023-05-10T03:00:08;100727.97;;;12.61;76.27
62791;BME280;48830;53.426;10.300;2023-05-10T03:02:34;100733.06;;;12.51;77.44
62791;BME280;48830;53.426;10.300;2023-05-10T03:04:59;100733.09;;;12.58;76.48
62791;BME280;48830;53.426;10.300;2023-05-10T03:07:25;100730.50;;;12.51;76.97
62791;BME280;48830;53.426;10.300;2023-05-10T03:09:51;100728.72;;;12.47;77.25
62791;BME280;48830;53.426;10.300;2023-05-10T03:15:19;100735.66;;;12.51;77.52
62791;BME280;48830;53.426;10.300;2023-05-10T03:18:02;100729.66;;;12.55;76.88
62791;BME280;48830;53.426;10.300;2023-05-10T03:20:35;100729.66;;;12.55;77.26
62791;BME280;48830;53.426;10.300;2023-05-10T03:25:44;100728.72;;;12.47;77.71
62791;BME280;48830;53.426;10.300;2023-05-10T03:28:11;100730.44;;;12.45;77.86
62791;BME280;48830;53.426;10.300;2023-05-10T03:30:38;100728.66;;;12.38;78.37
62791;BME280;48830;53.426;10.300;2023-05-10T03:33:05;100730.44;;;12.48;77.90
62791;BME280;48830;53.426;10.300;2023-05-10T03:35:32;100733.00;;;12.39;78.51
62791;BME280;48830;53.426;10.300;2023-05-10T03:37:58;100730.44;;;12.43;78.28
62791;BME280;48830;53.426;10.300;2023-05-10T03:40:24;100732.13;;;12.43;78.05
62791;BME280;48830;53.426;10.300;2023-05-10T03:42:50;100731.28;;;12.41;78.53
62791;BME280;48830;53.426;10.300;2023-05-10T03:45:16;100732.16;;;12.44;78.50
62791;BME280;48830;53.426;10.300;2023-05-10T03:47:41;100728.72;;;12.47;78.93
62791;BME280;48830;53.426;10.300;2023-05-10T03:50:07;100726.16;;;12.44;78.98
62791;BME280;48830;53.426;10.300;2023-05-10T03:52:33;100728.66;;;12.38;79.07
62791;BME280;48830;53.426;10.300;2023-05-10T03:54:58;100728.69;;;12.41;79.27
62791;BME280;48830;53.426;10.300;2023-05-10T03:57:24;100736.47;;;12.47;78.65
62791;BME280;48830;53.426;10.300;2023-05-10T03:59:49;100732.16;;;12.44;79.32
62791;BME280;48830;53.426;10.300;2023-05-10T04:02:16;100735.59;;;12.48;79.27
62791;BME280;48830;53.426;10.300;2023-05-10T04:04:41;100722.69;;;12.40;79.66
62791;BME280;48830;53.426;10.300;2023-05-10T04:07:07;100720.97;;;12.42;79.79
62791;BME280;48830;53.426;10.300;2023-05-10T04:09:33;100720.13;;;12.46;79.39
62791;BME280;48830;53.426;10.300;2023-05-10T04:11:59;100730.44;;;12.45;80.05
62791;BME280;48830;53.426;10.300;2023-05-10T04:14:25;100733.03;;;12.46;79.70
62791;BME280;48830;53.426;10.300;2023-05-10T04:16:51;100727.03;;;12.52;79.60
62791;BME280;48830;53.426;10.300;2023-05-10T04:19:16;100725.34;;;12.51;79.34
62791;BME280;48830;53.426;10.300;2023-05-10T04:21:42;100723.56;;;12.47;80.05
62791;BME280;48830;53.426;10.300;2023-05-10T04:24:07;100727.09;;;12.58;79.30
62791;BME280;48830;53.426;10.300;2023-05-10T04:26:32;100726.22;;;12.57;79.75
62791;BME280;48830;53.426;10.300;2023-05-10T04:28:58;100733.06;;;12.51;80.22
62791;BME280;48830;53.426;10.300;2023-05-10T04:31:23;100729.63;;;12.49;79.62
62791;BME280;48830;53.426;10.300;2023-05-10T04:33:49;100729.66;;;12.55;79.49
62791;BME280;48830;53.426;10.300;2023-05-10T04:36:15;100728.78;;;12.53;80.21
62791;BME280;48830;53.426;10.300;2023-05-10T04:38:40;100727.94;;;12.54;80.20
62791;BME280;48830;53.426;10.300;2023-05-10T04:41:07;100729.63;;;12.52;79.70
62791;BME280;48830;53.426;10.300;2023-05-10T04:43:33;100728.84;;;12.64;79.13
62791;BME280;48830;53.426;10.300;2023-05-10T04:45:59;100721.09;;;12.64;79.98
62791;BME280;48830;53.426;10.300;2023-05-10T04:48:24;100720.22;;;12.58;80.65
62791;BME280;48830;53.426;10.300;2023-05-10T04:50:50;100712.53;;;12.65;80.32
62791;BME280;48830;53.426;10.300;2023-05-10T04:53:15;100726.31;;;12.71;79.89
62791;BME280;48830;53.426;10.300;2023-05-10T04:55:41;100720.28;;;12.66;79.89
62791;BME280;48830;53.426;10.300;2023-05-10T04:58:06;100721.19;;;12.76;79.23
62791;BME280;48830;53.426;10.300;2023-05-10T05:00:33;100722.03;;;12.78;79.66
62791;BME280;48830;53.426;10.300;2023-05-10T05:02:58;100718.66;;;12.90;79.69
62791;BME280;48830;53.426;10.300;2023-05-10T05:05:24;100732.50;;;13.04;77.95
62791;BME280;48830;53.426;10.300;2023-05-10T05:07:50;100729.06;;;13.11;77.68
62791;BME280;48830;53.426;10.300;2023-05-10T05:10:15;100733.44;;;13.21;77.96
62791;BME280;48830;53.426;10.300;2023-05-10T05:12:41;100730.91;;;13.24;77.48
62791;BME280;48830;53.426;10.300;2023-05-10T05:15:07;100736.94;;;13.29;78.11
62791;BME280;48830;53.426;10.300;2023-05-10T05:17:34;100737.00;;;13.54;75.68
62791;BME280;48830;53.426;10.300;2023-05-10T05:20:00;100731.00;;;13.64;75.41
62791;BME280;48830;53.426;10.300;2023-05-10T05:22:25;100725.84;;;13.73;75.20
62791;BME280;48830;53.426;10.300;2023-05-10T05:24:56;100736.16;;;13.75;74.49
62791;BME280;48830;53.426;10.300;2023-05-10T05:27:24;100729.31;;;13.90;73.70
62791;BME280;48830;53.426;10.300;2023-05-10T05:29:55;100737.91;;;14.08;73.27
62791;BME280;48830;53.426;10.300;2023-05-10T05:32:21;100726.72;;;13.98;72.71
62791;BME280;48830;53.426;10.300;2023-05-10T05:34:47;100729.28;;;14.15;72.38
62791;BME280;48830;53.426;10.300;2023-05-10T05:37:17;100731.88;;;14.18;72.34
62791;BME280;48830;53.426;10.300;2023-05-10T05:39:43;100731.03;;;14.33;72.81
62791;BME280;48830;53.426;10.300;2023-05-10T05:42:09;100731.00;;;14.34;71.70
62791;BME280;48830;53.426;10.300;2023-05-10T05:44:35;100733.59;;;14.45;72.09
62791;BME280;48830;53.426;10.300;2023-05-10T05:47:00;100729.31;;;14.50;71.93
62791;BME280;48830;53.426;10.300;2023-05-10T05:49:26;100735.34;;;14.54;71.61
62791;BME280;48830;53.426;10.300;2023-05-10T05:51:51;100737.03;;;14.45;71.73
62791;BME280;48830;53.426;10.300;2023-05-10T05:54:17;100740.47;;;14.46;72.04
62791;BME280;48830;53.426;10.300;2023-05-10T05:56:42;100737.91;;;14.44;72.87
62791;BME280;48830;53.426;10.300;2023-05-10T05:59:09;100736.16;;;14.66;71.79
62791;BME280;48830;53.426;10.300;2023-05-10T06:01:35;100744.78;;;14.68;71.72
62791;BME280;48830;53.426;10.300;2023-05-10T06:04:01;100738.75;;;14.66;71.52
62791;BME280;48830;53.426;10.300;2023-05-10T06:06:26;100735.25;;;14.84;71.59
62791;BME280;48830;53.426;10.300;2023-05-10T06:08:52;100743.78;;;15.15;70.41
62791;BME280;48830;53.426;10.300;2023-05-10T06:11:17;100742.00;;;15.27;69.67
62791;BME280;48830;53.426;10.300;2023-05-10T06:13:43;100733.34;;;15.31;70.52
62791;BME280;48830;53.426;10.300;2023-05-10T06:16:08;100743.66;;;15.44;69.65
62791;BME280;48830;53.426;10.300;2023-05-10T06:18:34;100749.53;;;15.74;69.00
62791;BME280;48830;53.426;10.300;2023-05-10T06:20:59;100747.00;;;15.63;68.52
62791;BME280;48830;53.426;10.300;2023-05-10T06:23:25;100750.47;;;15.67;68.69
62791;BME280;48830;53.426;10.300;2023-05-10T06:25:51;100752.19;;;15.63;69.18
62791;BME280;48830;53.426;10.300;2023-05-10T06:28:17;100752.16;;;15.69;68.78
62791;BME280;48830;53.426;10.300;2023-05-10T06:30:42;100752.13;;;15.74;68.37
62791;BME280;48830;53.426;10.300;2023-05-10T06:33:08;100759.75;;;15.97;67.94
62791;BME280;48830;53.426;10.300;2023-05-10T06:35:34;100756.94;;;16.26;67.42
62791;BME280;48830;53.426;10.300;2023-05-10T06:37:59;100751.84;;;16.15;67.25
62791;BME280;48830;53.426;10.300;2023-05-10T06:40:25;100748.91;;;16.50;66.41
62791;BME280;48830;53.426;10.300;2023-05-10T06:42:50;100758.59;;;16.33;66.63
62791;BME280;48830;53.426;10.300;2023-05-10T06:45:16;100752.59;;;16.25;66.84
62791;BME280;48830;53.426;10.300;2023-05-10T06:47:42;100763.13;;;16.07;65.64
62791;BME280;48830;53.426;10.300;2023-05-10T06:50:09;100769.97;;;16.20;66.66
62791;BME280;48830;53.426;10.300;2023-05-10T06:52:34;100773.34;;;16.28;65.11
62791;BME280;48830;53.426;10.300;2023-05-10T06:55:01;100769.91;;;16.24;66.33
62791;BME280;48830;53.426;10.300;2023-05-10T06:57:26;100765.44;;;16.40;65.10
62791;BME280;48830;53.426;10.300;2023-05-10T06:59:52;100763.44;;;16.70;64.08
62791;BME280;48830;53.426;10.300;2023-05-10T07:02:17;100766.13;;;16.61;63.14
62791;BME280;48830;53.426;10.300;2023-05-10T07:04:43;100761.75;;;16.63;62.74
62791;BME280;48830;53.426;10.300;2023-05-10T07:07:08;100758.94;;;16.90;63.03
62791;BME280;48830;53.426;10.300;2023-05-10T07:09:34;100767.13;;;17.29;62.45
62791;BME280;48830;53.426;10.300;2023-05-10T07:11:59;100767.13;;;17.29;61.92
62791;BME280;48830;53.426;10.300;2023-05-10T07:14:27;100764.72;;;17.12;61.66
62791;BME280;48830;53.426;10.300;2023-05-10T07:16:53;100760.41;;;17.10;61.46
62791;BME280;48830;53.426;10.300;2023-05-10T07:19:18;100769.00;;;17.15;63.41
62791;BME280;48830;53.426;10.300;2023-05-10T07:21:44;100764.81;;;17.06;61.57
62791;BME280;48830;53.426;10.300;2023-05-10T07:24:10;100766.25;;;17.27;62.40
62791;BME280;48830;53.426;10.300;2023-05-10T07:26:35;100768.72;;;17.39;62.42
62791;BME280;48830;53.426;10.300;2023-05-10T07:29:00;100770.34;;;17.46;61.04
62791;BME280;48830;53.426;10.300;2023-05-10T07:31:26;100767.13;;;17.29;60.61
62791;BME280;48830;53.426;10.300;2023-05-10T07:33:51;100765.25;;;17.40;60.65
62791;BME280;48830;53.426;10.300;2023-05-10T07:36:17;100765.31;;;17.34;60.82
62791;BME280;48830;53.426;10.300;2023-05-10T07:38:42;100759.94;;;17.49;61.15
62791;BME280;48830;53.426;10.300;2023-05-10T07:41:08;100764.97;;;17.58;61.67
62791;BME280;48830;53.426;10.300;2023-05-10T07:43:33;100767.66;;;17.52;62.24
62791;BME280;48830;53.426;10.300;2023-05-10T07:45:58;100766.63;;;17.66;63.12
62791;BME280;48830;53.426;10.300;2023-05-10T07:48:25;100769.22;;;17.66;61.73
62791;BME280;48830;53.426;10.300;2023-05-10T07:50:51;100771.88;;;17.63;60.46
62791;BME280;48830;53.426;10.300;2023-05-10T07:53:16;100767.03;;;17.35;60.54
62791;BME280;48830;53.426;10.300;2023-05-10T07:55:43;100775.81;;;17.28;60.96
62791;BME280;48830;53.426;10.300;2023-05-10T07:58:09;100779.25;;;17.27;61.60
62791;BME280;48830;53.426;10.300;2023-05-10T08:00:34;100777.38;;;17.40;62.68
62791;BME280;48830;53.426;10.300;2023-05-10T08:03:00;100780.72;;;17.49;61.85
62791;BME280;48830;53.426;10.300;2023-05-10T08:05:25;100782.66;;;17.32;63.08
62791;BME280;48830;53.426;10.300;2023-05-10T08:07:51;100785.25;;;17.32;62.96
62791;BME280;48830;53.426;10.300;2023-05-10T08:10:16;100789.47;;;17.42;62.49
62791;BME280;48830;53.426;10.300;2023-05-10T08:12:42;100785.84;;;17.55;61.74
62791;BME280;48830;53.426;10.300;2023-05-10T08:15:08;100780.63;;;17.55;62.06
62791;BME280;48830;53.426;10.300;2023-05-10T08:17:34;100780.56;;;17.58;60.70
62791;BME280;48830;53.426;10.300;2023-05-10T08:19:59;100789.78;;;17.84;61.18
62791;BME280;48830;53.426;10.300;2023-05-10T08:22:25;100789.06;;;17.74;60.63
62791;BME280;48830;53.426;10.300;2023-05-10T08:24:51;100792.56;;;17.69;61.58
62791;BME280;48830;53.426;10.300;2023-05-10T08:27:17;100784.34;;;18.01;62.56
62791;BME280;48830;53.426;10.300;2023-05-10T08:29:42;100796.03;;;17.71;60.66
62791;BME280;48830;53.426;10.300;2023-05-10T08:32:08;100794.69;;;18.04;59.91
62791;BME280;48830;53.426;10.300;2023-05-10T08:34:33;100800.00;;;17.98;60.66
62791;BME280;48830;53.426;10.300;2023-05-10T08:36:59;100802.09;;;17.70;60.89
62791;BME280;48830;53.426;10.300;2023-05-10T08:39:24;100807.88;;;17.93;61.21
62791;BME280;48830;53.426;10.300;2023-05-10T08:41:51;100801.72;;;17.99;61.03
62791;BME280;48830;53.426;10.300;2023-05-10T08:44:19;100802.50;;;18.02;62.33
62791;BME280;48830;53.426;10.300;2023-05-10T08:46:46;100804.28;;;18.00;61.00
62791;BME280;48830;53.426;10.300;2023-05-10T08:49:17;100808.97;;;17.77;61.76
62791;BME280;48830;53.426;10.300;2023-05-10T08:51:50;100807.88;;;17.93;62.65
62791;BME280;48830;53.426;10.300;2023-05-10T08:54:17;100805.88;;;18.10;61.52
62791;BME280;48830;53.426;10.300;2023-05-10T08:56:42;100812.56;;;17.65;62.98
62791;BME280;48830;53.426;10.300;2023-05-10T08:59:08;100815.06;;;17.76;63.04
62791;BME280;48830;53.426;10.300;2023-05-10T09:01:35;100816.78;;;17.74;63.77
62791;BME280;48830;53.426;10.300;2023-05-10T09:04:02;100821.28;;;17.61;65.04
62791;BME280;48830;53.426;10.300;2023-05-10T09:06:29;100826.56;;;17.55;65.88
62791;BME280;48830;53.426;10.300;2023-05-10T09:08:54;100834.44;;;17.47;65.48
62791;BME280;48830;53.426;10.300;2023-05-10T09:11:20;100838.25;;;17.19;67.57
62791;BME280;48830;53.426;10.300;2023-05-10T09:13:48;100839.00;;;17.27;66.91
62791;BME280;48830;53.426;10.300;2023-05-10T09:16:15;100837.38;;;17.18;68.21
62791;BME280;48830;53.426;10.300;2023-05-10T09:18:40;100847.00;;;17.09;68.94
62791;BME280;48830;53.426;10.300;2023-05-10T09:21:06;100844.56;;;16.93;69.73
62791;BME280;48830;53.426;10.300;2023-05-10T09:23:31;100849.69;;;17.01;70.07
62791;BME280;48830;53.426;10.300;2023-05-10T09:26:05;100848.78;;;17.05;70.11
62791;BME280;48830;53.426;10.300;2023-05-10T09:28:34;100851.38;;;17.07;70.01
62791;BME280;48830;53.426;10.300;2023-05-10T09:31:15;100852.22;;;17.09;70.54
62791;BME280;48830;53.426;10.300;2023-05-10T09:33:47;100847.09;;;16.99;71.24
62791;BME280;48830;53.426;10.300;2023-05-10T09:36:13;100853.03;;;17.11;71.39
62791;BME280;48830;53.426;10.300;2023-05-10T09:38:50;100859.13;;;17.08;71.17
62791;BME280;48830;53.426;10.300;2023-05-10T09:41:21;100856.59;;;17.03;71.55
62791;BME280;48830;53.426;10.300;2023-05-10T09:43:47;100873.34;;;16.63;72.25
62791;BME280;48830;53.426;10.300;2023-05-10T09:46:14;100860.38;;;16.64;72.38
62791;BME280;48830;53.426;10.300;2023-05-10T09:48:45;100858.56;;;16.80;73.41
62791;BME280;48830;53.426;10.300;2023-05-10T09:51:18;100860.06;;;16.99;72.61
62791;BME280;48830;53.426;10.300;2023-05-10T09:53:44;100877.66;;;16.67;72.69
62791;BME280;48830;53.426;10.300;2023-05-10T09:56:09;100875.88;;;16.79;73.65
62791;BME280;48830;53.426;10.300;2023-05-10T09:58:36;100877.69;;;16.64;74.74
62791;BME280;48830;53.426;10.300;2023-05-10T10:01:03;100883.78;;;16.60;74.14
62791;BME280;48830;53.426;10.300;2023-05-10T10:03:29;100885.50;;;16.64;74.82
62791;BME280;48830;53.426;10.300;2023-05-10T10:05:55;100892.41;;;16.65;75.02
62791;BME280;48830;53.426;10.300;2023-05-10T10:08:21;100891.63;;;16.52;80.29
62791;BME280;48830;53.426;10.300;2023-05-10T10:10:47;100902.97;;;16.36;82.65
62791;BME280;48830;53.426;10.300;2023-05-10T10:13:12;100905.69;;;16.17;84.64
62791;BME280;48830;53.426;10.300;2023-05-10T10:15:39;100903.13;;;16.16;87.66
62791;BME280;48830;53.426;10.300;2023-05-10T10:18:05;100909.19;;;16.12;91.55
62791;BME280;48830;53.426;10.300;2023-05-10T10:20:30;100907.63;;;15.77;94.61
62791;BME280;48830;53.426;10.300;2023-05-10T10:22:56;100905.84;;;15.90;96.90
62791;BME280;48830;53.426;10.300;2023-05-10T10:25:22;100915.31;;;15.92;99.15
62791;BME280;48830;53.426;10.300;2023-05-10T10:30:41;100911.97;;;15.69;100.00
62791;BME280;48830;53.426;10.300;2023-05-10T10:36:05;100924.13;;;15.33;100.00
62791;BME280;48830;53.426;10.300;2023-05-10T10:41:35;100939.69;;;15.01;100.00
62791;BME280;48830;53.426;10.300;2023-05-10T10:44:37;100938.81;;;15.11;100.00
62791;BME280;48830;53.426;10.300;2023-05-10T10:50:03;100941.41;;;14.79;100.00
62791;BME280;48830;53.426;10.300;2023-05-10T10:52:39;100941.41;;;14.62;100.00
62791;BME280;48830;53.426;10.300;2023-05-10T10:55:07;100950.03;;;14.78;100.00
62791;BME280;48830;53.426;10.300;2023-05-10T10:57:53;100952.63;;;14.66;100.00
62791;BME280;48830;53.426;10.300;2023-05-10T11:00:32;100949.19;;;14.61;100.00
62791;BME280;48830;53.426;10.300;2023-05-10T11:03:05;100948.31;;;14.83;100.00
62791;BME280;48830;53.426;10.300;2023-05-10T11:07:59;100952.63;;;14.80;100.00
62791;BME280;48830;53.426;10.300;2023-05-10T11:10:26;100953.53;;;14.92;100.00
62791;BME280;48830;53.426;10.300;2023-05-10T11:12:59;100950.03;;;14.90;100.00
62791;BME280;48830;53.426;10.300;2023-05-10T11:15:32;100962.13;;;15.01;100.00
62791;BME280;48830;53.426;10.300;2023-05-10T11:17:59;100968.16;;;14.89;100.00
62791;BME280;48830;53.426;10.300;2023-05-10T11:20:27;100958.69;;;15.05;100.00
62791;BME280;48830;53.426;10.300;2023-05-10T11:23:10;100963.00;;;15.03;100.00
62791;BME280;48830;53.426;10.300;2023-05-10T11:25:44;100965.59;;;15.18;100.00
62791;BME280;48830;53.426;10.300;2023-05-10T11:28:12;100964.69;;;15.33;100.00
62791;BME280;48830;53.426;10.300;2023-05-10T11:30:43;100964.69;;;15.51;100.00
62791;BME280;48830;53.426;10.300;2023-05-10T11:33:15;100962.06;;;15.53;100.00
62791;BME280;48830;53.426;10.300;2023-05-10T11:35:41;100969.88;;;15.46;100.00
62791;BME280;48830;53.426;10.300;2023-05-10T11:38:08;100968.09;;;15.74;100.00
62791;BME280;48830;53.426;10.300;2023-05-10T11:40:34;100972.44;;;15.68;100.00
62791;BME280;48830;53.426;10.300;2023-05-10T11:43:00;100969.84;;;15.54;100.00
62791;BME280;48830;53.426;10.300;2023-05-10T11:45:25;100968.13;;;15.58;100.00
62791;BME280;48830;53.426;10.300;2023-05-10T11:47:51;100976.75;;;15.69;100.00
62791;BME280;48830;53.426;10.300;2023-05-10T11:50:17;100978.44;;;15.81;100.00
62791;BME280;48830;53.426;10.300;2023-05-10T11:52:42;100977.59;;;15.60;100.00
62791;BME280;48830;53.426;10.300;2023-05-10T11:55:08;100984.56;;;15.51;100.00
62791;BME280;48830;53.426;10.300;2023-05-10T11:57:35;100981.09;;;15.42;100.00
62791;BME280;48830;53.426;10.300;2023-05-10T12:00:01;100988.81;;;15.79;100.00
62791;BME280;48830;53.426;10.300;2023-05-10T12:02:33;100988.81;;;15.85;100.00
62791;BME280;48830;53.426;10.300;2023-05-10T12:04:58;100991.41;;;15.84;100.00
62791;BME280;48830;53.426;10.300;2023-05-10T12:07:26;100997.44;;;15.81;100.00
62791;BME280;48830;53.426;10.300;2023-05-10T12:10:07;101000.00;;;15.87;100.00
62791;BME280;48830;53.426;10.300;2023-05-10T12:12:47;100998.38;;;15.63;100.00
62791;BME280;48830;53.426;10.300;2023-05-10T12:15:21;101006.09;;;15.85;100.00
62791;BME280;48830;53.426;10.300;2023-05-10T12:17:47;101007.81;;;15.93;100.00
62791;BME280;48830;53.426;10.300;2023-05-10T12:20:23;101001.75;;;15.91;100.00
62791;BME280;48830;53.426;10.300;2023-05-10T12:22:57;101009.53;;;15.87;100.00
62791;BME280;48830;53.426;10.300;2023-05-10T12:25:29;101014.75;;;15.84;100.00
62791;BME280;48830;53.426;10.300;2023-05-10T12:27:57;101011.28;;;15.88;100.00
62791;BME280;48830;53.426;10.300;2023-05-10T12:30:31;101018.97;;;16.08;100.00
62791;BME280;48830;53.426;10.300;2023-05-10T12:35:32;101029.31;;;16.14;100.00
62791;BME280;48830;53.426;10.300;2023-05-10T12:37:58;101028.56;;;15.77;100.00
62791;BME280;48830;53.426;10.300;2023-05-10T12:40:24;101032.84;;;16.00;100.00
62791;BME280;48830;53.426;10.300;2023-05-10T12:42:49;101035.41;;;16.05;100.00
62791;BME280;48830;53.426;10.300;2023-05-10T12:45:17;101034.63;;;15.83;100.00
62791;BME280;48830;53.426;10.300;2023-05-10T12:47:43;101037.09;;;16.17;100.00
62791;BME280;48830;53.426;10.300;2023-05-10T12:50:08;101036.28;;;16.02;100.00
62791;BME280;48830;53.426;10.300;2023-05-10T12:52:34;101037.94;;;16.26;100.00
62791;BME280;48830;53.426;10.300;2023-05-10T12:55:00;101041.41;;;16.18;100.00
62791;BME280;48830;53.426;10.300;2023-05-10T12:57:26;101040.47;;;16.37;100.00
62791;BME280;48830;53.426;10.300;2023-05-10T12:59:52;101043.09;;;16.31;100.00
62791;BME280;48830;53.426;10.300;2023-05-10T13:02:17;101035.28;;;16.42;100.00
62791;BME280;48830;53.426;10.300;2023-05-10T13:04:44;101042.03;;;16.73;100.00
62791;BME280;48830;53.426;10.300;2023-05-10T13:07:11;101044.72;;;16.50;100.00
62791;BME280;48830;53.426;10.300;2023-05-10T13:09:37;101046.53;;;16.35;100.00